createdAt,value
2018-06-15T00:00:52.463Z,17.90
2018-06-15T00:03:21.808Z,17.90
2018-06-15T00:05:50.954Z,17.90
2018-06-15T00:08:20.548Z,17.80
2018-06-15T00:10:49.616Z,17.80
2018-06-15T00:13:19.081Z,17.80
2018-06-15T00:15:48.598Z,17.80
2018-06-15T00:18:18.072Z,17.80
2018-06-15T00:20:47.799Z,17.80
2018-06-15T00:23:17.222Z,17.80
2018-06-15T00:25:46.849Z,17.70
2018-06-15T00:28:16.208Z,17.80
2018-06-15T00:30:45.815Z,17.70
2018-06-15T00:33:15.253Z,17.70
2018-06-15T00:35:44.657Z,17.80
2018-06-15T00:38:14.099Z,17.80
2018-06-15T00:40:43.517Z,17.80
2018-06-15T00:43:12.943Z,17.80
2018-06-15T00:45:42.667Z,17.90
2018-06-15T00:48:12.343Z,17.90
2018-06-15T00:50:41.657Z,17.90
2018-06-15T00:53:11.268Z,18.00
2018-06-15T00:55:41.006Z,18.10
2018-06-15T00:58:10.368Z,18.20
2018-06-15T01:00:39.988Z,18.20
2018-06-15T01:05:38.207Z,18.30
2018-06-15T01:08:07.613Z,18.20
2018-06-15T01:10:37.056Z,18.20
2018-06-15T01:13:06.518Z,18.30
2018-06-15T01:15:36.175Z,18.30
2018-06-15T01:18:05.237Z,18.30
2018-06-15T01:20:34.640Z,18.30
2018-06-15T01:23:04.562Z,18.20
2018-06-15T01:25:33.620Z,18.20
2018-06-15T01:28:02.969Z,18.10
2018-06-15T01:30:32.284Z,18.20
2018-06-15T01:35:30.647Z,18.20
2018-06-15T01:38:00.025Z,18.10
2018-06-15T01:40:29.425Z,18.10
2018-06-15T01:42:58.844Z,17.90
2018-06-15T01:45:28.182Z,18.00
2018-06-15T01:47:57.284Z,18.00
2018-06-15T01:50:26.381Z,18.10
2018-06-15T01:52:55.481Z,18.00
2018-06-15T01:55:24.855Z,18.00
2018-06-15T01:57:54.285Z,18.00
2018-06-15T02:00:23.756Z,18.00
2018-06-15T02:02:53.155Z,18.00
2018-06-15T02:05:22.492Z,18.00
2018-06-15T02:07:51.972Z,17.90
2018-06-15T02:10:21.789Z,17.90
2018-06-15T02:12:51.147Z,17.90
2018-06-15T02:15:20.500Z,17.90
2018-06-15T02:17:49.892Z,17.90
2018-06-15T02:20:19.236Z,17.80
2018-06-15T02:22:48.572Z,17.80
2018-06-15T02:25:17.946Z,17.80
2018-06-15T02:27:47.294Z,17.80
2018-06-15T02:30:16.688Z,17.80
2018-06-15T02:32:45.981Z,17.80
2018-06-15T02:35:15.362Z,17.80
2018-06-15T02:37:45.423Z,17.80
2018-06-15T02:40:15.061Z,17.80
2018-06-15T02:42:44.135Z,17.80
2018-06-15T02:45:13.807Z,17.80
2018-06-15T02:47:43.164Z,17.80
2018-06-15T02:50:12.318Z,17.80
2018-06-15T02:52:41.678Z,17.80
2018-06-15T02:55:11.113Z,17.80
2018-06-15T02:57:40.464Z,17.70
2018-06-15T03:00:09.854Z,17.70
2018-06-15T03:02:39.244Z,17.80
2018-06-15T03:05:08.641Z,17.80
2018-06-15T03:07:38.017Z,17.70
2018-06-15T03:10:07.643Z,17.80
2018-06-15T03:12:36.696Z,17.80
2018-06-15T03:15:06.915Z,17.80
2018-06-15T03:17:36.106Z,17.80
2018-06-15T03:20:05.792Z,17.80
2018-06-15T03:22:35.231Z,17.80
2018-06-15T03:25:04.666Z,17.90
2018-06-15T03:27:34.271Z,17.80
2018-06-15T03:30:03.599Z,17.80
2018-06-15T03:32:32.991Z,17.80
2018-06-15T03:35:02.492Z,17.80
2018-06-15T03:37:32.203Z,17.80
2018-06-15T03:40:01.802Z,17.90
2018-06-15T03:42:31.160Z,17.80
2018-06-15T03:45:00.601Z,17.80
2018-06-15T03:47:29.624Z,17.80
2018-06-15T03:49:59.058Z,17.90
2018-06-15T03:52:28.449Z,17.90
2018-06-15T03:54:57.857Z,17.90
2018-06-15T03:57:27.318Z,17.80
2018-06-15T03:59:56.724Z,17.80
2018-06-15T04:02:26.196Z,17.80
2018-06-15T04:04:55.535Z,17.80
2018-06-15T04:07:24.966Z,17.90
2018-06-15T04:09:54.321Z,17.90
2018-06-15T04:12:23.787Z,17.90
2018-06-15T04:14:53.177Z,17.90
2018-06-15T04:17:22.588Z,17.90
2018-06-15T04:19:52.049Z,17.90
2018-06-15T04:22:21.571Z,18.00
2018-06-15T04:24:50.872Z,18.00
2018-06-15T04:27:20.282Z,18.00
2018-06-15T04:29:49.732Z,18.00
2018-06-15T04:34:48.108Z,18.20
2018-06-15T04:37:17.569Z,18.10
2018-06-15T04:39:47.107Z,18.20
2018-06-15T04:42:16.496Z,18.20
2018-06-15T04:44:45.961Z,18.30
2018-06-15T04:47:15.724Z,18.50
2018-06-15T04:49:45.299Z,18.60
2018-06-15T04:52:14.641Z,18.60
2018-06-15T04:54:44.026Z,18.60
2018-06-15T04:57:13.447Z,18.70
2018-06-15T04:59:42.942Z,18.80
2018-06-15T05:02:12.311Z,18.70
2018-06-15T05:04:41.678Z,18.60
2018-06-15T05:09:40.645Z,18.60
2018-06-15T05:12:10.241Z,18.70
2018-06-15T05:14:39.705Z,18.80
2018-06-15T05:17:09.461Z,18.90
2018-06-15T05:19:38.767Z,18.90
2018-06-15T05:22:08.686Z,19.00
2018-06-15T05:24:38.251Z,19.10
2018-06-15T05:27:07.876Z,19.10
2018-06-15T05:29:37.183Z,19.20
2018-06-15T05:32:06.663Z,19.30
2018-06-15T05:34:36.066Z,19.20
2018-06-15T05:37:05.518Z,19.20
2018-06-15T05:39:34.932Z,19.10
2018-06-15T05:42:04.421Z,19.20
2018-06-15T05:44:33.885Z,19.10
2018-06-15T05:47:03.283Z,19.00
2018-06-15T05:49:34.475Z,19.10
2018-06-15T05:52:04.064Z,19.10
2018-06-15T05:54:33.478Z,19.00
2018-06-15T05:57:02.756Z,19.10
2018-06-15T05:59:32.201Z,19.20
2018-06-15T06:02:01.592Z,19.20
2018-06-15T06:04:31.184Z,19.10
2018-06-15T06:07:00.884Z,19.20
2018-06-15T06:09:30.210Z,19.10
2018-06-15T06:11:59.626Z,19.10
2018-06-15T06:14:29.021Z,19.20
2018-06-15T06:16:58.541Z,19.30
2018-06-15T06:19:27.938Z,19.40
2018-06-15T06:21:57.068Z,19.40
2018-06-15T06:24:26.140Z,19.40
2018-06-15T06:26:55.559Z,19.50
2018-06-15T06:29:25.098Z,19.50
2018-06-15T06:31:54.504Z,19.50
2018-06-15T06:34:23.984Z,19.60
2018-06-15T06:36:53.862Z,19.60
2018-06-15T06:39:23.029Z,19.30
2018-06-15T06:41:52.513Z,19.40
2018-06-15T06:44:21.877Z,19.30
2018-06-15T06:46:50.936Z,19.10
2018-06-15T06:49:20.366Z,19.20
2018-06-15T06:51:50.149Z,19.30
2018-06-15T06:54:19.899Z,19.40
2018-06-15T06:56:49.232Z,19.50
2018-06-15T06:59:18.595Z,19.70
2018-06-15T07:01:47.961Z,19.90
2018-06-15T07:04:17.369Z,20.00
2018-06-15T07:06:46.688Z,20.00
2018-06-15T07:09:16.268Z,20.00
2018-06-15T07:11:45.707Z,19.90
2018-06-15T07:14:15.094Z,19.70
2018-06-15T07:16:44.475Z,19.70
2018-06-15T07:19:13.796Z,19.80
2018-06-15T07:21:43.173Z,19.80
2018-06-15T07:24:12.682Z,19.70
2018-06-15T07:26:42.538Z,19.80
2018-06-15T07:29:11.925Z,19.90
2018-06-15T07:31:41.296Z,20.20
2018-06-15T07:34:10.678Z,20.40
2018-06-15T07:36:40.107Z,20.50
2018-06-15T07:41:39.809Z,20.80
2018-06-15T07:44:09.986Z,21.00
2018-06-15T07:46:39.420Z,20.90
2018-06-15T07:49:08.775Z,21.10
2018-06-15T07:51:38.181Z,21.10
2018-06-15T07:54:07.572Z,21.10
2018-06-15T07:56:36.952Z,21.20
2018-06-15T07:59:06.935Z,21.30
2018-06-15T08:01:36.359Z,21.20
2018-06-15T08:04:08.069Z,21.40
2018-06-15T08:06:37.450Z,21.30
2018-06-15T08:09:08.313Z,21.60
2018-06-15T08:11:37.880Z,21.80
2018-06-15T08:14:07.267Z,21.70
2018-06-15T08:16:36.670Z,21.70
2018-06-15T08:19:06.398Z,21.70
2018-06-15T08:21:35.952Z,22.20
2018-06-15T08:24:05.666Z,22.20
2018-06-15T08:26:35.101Z,22.30
2018-06-15T08:29:04.536Z,22.40
2018-06-15T08:34:02.959Z,22.10
2018-06-15T08:36:32.385Z,22.40
2018-06-15T08:39:02.068Z,22.20
2018-06-15T08:41:31.215Z,21.80
2018-06-15T08:44:00.600Z,21.70
2018-06-15T08:46:29.932Z,22.00
2018-06-15T08:48:59.300Z,21.80
2018-06-15T08:51:28.667Z,21.90
2018-06-15T08:53:57.959Z,22.00
2018-06-15T08:56:27.280Z,22.10
2018-06-15T08:58:56.639Z,22.10
2018-06-15T09:01:26.014Z,21.70
2018-06-15T09:03:55.883Z,21.70
2018-06-15T09:06:25.260Z,21.70
2018-06-15T09:08:54.688Z,21.80
2018-06-15T09:11:24.079Z,21.40
2018-06-15T09:13:53.495Z,21.60
2018-06-15T09:16:22.984Z,21.90
2018-06-15T09:18:52.315Z,22.10
2018-06-15T09:21:21.809Z,22.30
2018-06-15T09:23:51.119Z,22.60
2018-06-15T09:26:20.548Z,22.50
2018-06-15T09:28:49.933Z,22.50
2018-06-15T09:31:19.336Z,22.80
2018-06-15T09:33:48.763Z,22.70
2018-06-15T09:36:18.119Z,22.60
2018-06-15T09:38:47.502Z,22.60
2018-06-15T09:41:16.778Z,22.40
2018-06-15T09:43:46.146Z,22.30
2018-06-15T09:46:15.923Z,22.20
2018-06-15T09:48:45.505Z,22.00
2018-06-15T09:51:15.671Z,21.90
2018-06-15T09:53:45.054Z,22.00
2018-06-15T09:56:14.416Z,21.80
2018-06-15T09:58:43.848Z,22.10
2018-06-15T10:01:13.251Z,22.80
2018-06-15T10:03:42.585Z,23.60
2018-06-15T10:06:12.046Z,24.00
2018-06-15T10:08:41.637Z,24.20
2018-06-15T10:11:10.981Z,24.40
2018-06-15T10:13:40.420Z,24.30
2018-06-15T10:16:09.828Z,24.00
2018-06-15T10:18:39.174Z,23.60
2018-06-15T10:21:08.631Z,23.20
2018-06-15T10:23:37.983Z,23.30
2018-06-15T10:26:07.437Z,23.00
2018-06-15T10:28:36.771Z,23.40
2018-06-15T10:31:06.181Z,23.40
2018-06-15T10:33:35.495Z,23.70
2018-06-15T10:36:05.067Z,23.90
2018-06-15T10:38:34.750Z,23.90
2018-06-15T10:41:04.113Z,23.70
2018-06-15T10:43:33.574Z,23.50
2018-06-15T10:46:02.967Z,23.10
2018-06-15T10:48:32.359Z,22.90
2018-06-15T10:51:01.727Z,22.90
2018-06-15T10:53:31.381Z,22.80
2018-06-15T10:56:00.722Z,22.60
2018-06-15T10:58:30.226Z,22.60
2018-06-15T11:00:59.612Z,22.60
2018-06-15T11:03:28.956Z,23.00
2018-06-15T11:05:58.290Z,23.80
2018-06-15T11:08:27.694Z,24.20
2018-06-15T11:10:57.018Z,23.80
2018-06-15T11:13:26.377Z,23.50
2018-06-15T11:15:55.792Z,23.40
2018-06-15T11:18:25.159Z,23.40
2018-06-15T11:20:54.499Z,23.30
2018-06-15T11:23:23.920Z,23.20
2018-06-15T11:25:53.236Z,23.00
2018-06-15T11:28:22.592Z,23.20
2018-06-15T11:30:51.957Z,23.20
2018-06-15T11:33:21.310Z,23.30
2018-06-15T11:35:50.720Z,23.30
2018-06-15T11:38:20.678Z,23.30
2018-06-15T11:40:50.059Z,23.30
2018-06-15T11:43:19.464Z,23.50
2018-06-15T11:45:48.933Z,23.60
2018-06-15T11:48:18.334Z,23.70
2018-06-15T11:50:47.688Z,23.70
2018-06-15T11:53:17.120Z,23.70
2018-06-15T11:55:46.475Z,23.70
2018-06-15T11:58:15.833Z,23.50
2018-06-15T12:00:45.176Z,23.20
2018-06-15T12:03:14.786Z,23.20
2018-06-15T12:05:44.500Z,23.10
2018-06-15T12:08:13.847Z,23.10
2018-06-15T12:10:43.148Z,23.00
2018-06-15T12:13:12.504Z,22.80
2018-06-15T12:15:41.899Z,22.60
2018-06-15T12:18:11.340Z,22.50
2018-06-15T12:20:40.686Z,22.60
2018-06-15T12:23:10.069Z,22.60
2018-06-15T12:25:39.133Z,22.60
2018-06-15T12:28:08.553Z,22.60
2018-06-15T12:30:37.944Z,22.70
2018-06-15T12:33:07.303Z,22.60
2018-06-15T12:35:36.426Z,22.60
2018-06-15T12:38:05.807Z,22.70
2018-06-15T12:40:35.239Z,22.70
2018-06-15T12:43:04.655Z,22.60
2018-06-15T12:45:34.073Z,22.70
2018-06-15T12:48:03.531Z,22.70
2018-06-15T12:50:32.980Z,22.70
2018-06-15T12:53:02.369Z,22.60
2018-06-15T12:55:31.875Z,22.60
2018-06-15T12:58:01.328Z,22.50
2018-06-15T13:00:30.806Z,22.40
2018-06-15T13:03:00.170Z,22.60
2018-06-15T13:05:29.625Z,22.60
2018-06-15T13:07:59.033Z,22.60
2018-06-15T13:10:28.614Z,22.70
2018-06-15T13:12:58.021Z,22.80
2018-06-15T13:15:27.480Z,22.90
2018-06-15T13:17:57.072Z,23.00
2018-06-15T13:20:26.562Z,23.30
2018-06-15T13:22:56.015Z,24.00
2018-06-15T13:25:25.484Z,24.90
2018-06-15T13:27:55.004Z,25.30
2018-06-15T13:30:24.334Z,25.80
2018-06-15T13:32:53.759Z,26.30
2018-06-15T13:35:23.543Z,26.30
2018-06-15T13:37:53.483Z,26.40
2018-06-15T13:40:23.175Z,26.40
2018-06-15T13:42:52.571Z,27.20
2018-06-15T13:45:21.965Z,28.60
2018-06-15T13:47:51.352Z,30.60
2018-06-15T13:50:20.744Z,30.20
2018-06-15T13:52:50.166Z,29.10
2018-06-15T13:55:19.573Z,28.90
2018-06-15T13:57:49.802Z,28.20
2018-06-15T14:00:19.499Z,28.40
2018-06-15T14:02:48.659Z,28.40
2018-06-15T14:05:18.276Z,29.00
2018-06-15T14:07:47.708Z,30.10
2018-06-15T14:10:17.050Z,30.10
2018-06-15T14:12:46.509Z,28.90
2018-06-15T14:17:45.159Z,26.90
2018-06-15T14:20:14.575Z,26.20
2018-06-15T14:22:44.212Z,25.90
2018-06-15T14:25:13.721Z,25.20
2018-06-15T14:27:43.216Z,24.90
2018-06-15T14:30:12.591Z,24.40
2018-06-15T14:32:42.267Z,24.10
2018-06-15T14:35:11.928Z,23.70
2018-06-15T14:37:43.906Z,23.50
2018-06-15T14:40:15.567Z,23.50
2018-06-15T14:42:45.210Z,23.10
2018-06-15T14:45:15.101Z,22.80
2018-06-15T14:47:44.551Z,22.80
2018-06-15T14:50:13.948Z,22.70
2018-06-15T14:52:43.218Z,22.70
2018-06-15T14:55:12.762Z,22.60
2018-06-15T14:57:42.229Z,22.50
2018-06-15T15:00:11.882Z,22.70
2018-06-15T15:05:10.352Z,22.70
2018-06-15T15:07:40.028Z,22.80
2018-06-15T15:10:09.666Z,22.90
2018-06-15T15:12:39.215Z,23.00
2018-06-15T15:15:08.651Z,23.00
2018-06-15T15:17:38.131Z,23.00
2018-06-15T15:20:07.493Z,22.90
2018-06-15T15:22:36.950Z,22.90
2018-06-15T15:25:06.756Z,22.80
2018-06-15T15:27:37.053Z,22.80
2018-06-15T15:30:07.854Z,22.80
2018-06-15T15:32:37.416Z,22.80
2018-06-15T15:35:07.049Z,22.70
2018-06-15T15:37:36.448Z,22.60
2018-06-15T15:40:05.908Z,22.70
2018-06-15T15:42:35.639Z,22.70
2018-06-15T15:45:05.541Z,22.60
2018-06-15T15:47:35.065Z,22.60
2018-06-15T15:50:04.896Z,22.60
2018-06-15T15:52:35.051Z,22.60
2018-06-15T15:55:04.247Z,22.60
2018-06-15T15:57:33.715Z,22.60
2018-06-15T16:00:03.659Z,22.70
2018-06-15T16:02:32.890Z,22.60
2018-06-15T16:05:02.700Z,22.50
2018-06-15T16:07:32.308Z,22.50
2018-06-15T16:10:01.886Z,22.30
2018-06-15T16:12:31.666Z,22.40
2018-06-15T16:15:01.176Z,22.40
2018-06-15T16:17:32.604Z,22.40
2018-06-15T16:20:02.382Z,22.40
2018-06-15T16:22:31.886Z,22.30
2018-06-15T16:25:01.473Z,22.40
2018-06-15T16:27:31.630Z,22.30
2018-06-15T16:30:00.999Z,22.40
2018-06-15T16:32:30.101Z,22.30
2018-06-15T16:34:59.651Z,22.30
2018-06-15T16:37:29.243Z,22.40
2018-06-15T16:39:58.664Z,22.30
2018-06-15T16:42:28.219Z,22.30
2018-06-15T16:44:58.042Z,22.30
2018-06-15T16:47:27.664Z,22.20
2018-06-15T16:49:56.825Z,22.20
2018-06-15T16:52:26.341Z,22.20
2018-06-15T16:54:55.697Z,22.20
2018-06-15T16:57:25.661Z,22.10
2018-06-15T16:59:55.471Z,22.10
2018-06-15T17:02:25.305Z,22.10
2018-06-15T17:04:54.926Z,22.10
2018-06-15T17:07:24.809Z,22.10
2018-06-15T17:09:54.348Z,22.00
2018-06-15T17:12:24.133Z,22.00
2018-06-15T17:14:54.044Z,21.90
2018-06-15T17:17:23.546Z,21.90
2018-06-15T17:19:53.117Z,21.90
2018-06-15T17:22:22.293Z,21.90
2018-06-15T17:24:51.843Z,21.90
2018-06-15T17:27:21.695Z,21.80
2018-06-15T17:29:51.194Z,21.90
2018-06-15T17:32:20.925Z,21.80
2018-06-15T17:34:50.554Z,21.80
2018-06-15T17:37:20.509Z,21.80
2018-06-15T17:39:49.997Z,21.80
2018-06-15T17:42:19.560Z,21.90
2018-06-15T17:44:48.960Z,22.00
2018-06-15T17:47:18.555Z,21.90
2018-06-15T17:49:47.998Z,22.00
2018-06-15T17:52:17.460Z,21.90
2018-06-15T17:54:47.008Z,21.90
2018-06-15T17:57:16.945Z,22.00
2018-06-15T17:59:46.542Z,22.00
2018-06-15T18:02:16.081Z,22.00
2018-06-15T18:04:45.516Z,21.90
2018-06-15T18:07:15.894Z,21.90
2018-06-15T18:09:45.358Z,21.80
2018-06-15T18:12:15.195Z,21.80
2018-06-15T18:14:45.223Z,21.80
2018-06-15T18:17:14.938Z,21.80
2018-06-15T18:19:44.476Z,21.70
2018-06-15T18:22:13.877Z,21.80
2018-06-15T18:24:43.616Z,21.80
2018-06-15T18:27:12.976Z,21.80
2018-06-15T18:29:42.427Z,21.80
2018-06-15T18:32:11.950Z,21.80
2018-06-15T18:34:41.667Z,21.80
2018-06-15T18:39:40.116Z,21.60
2018-06-15T18:42:09.858Z,21.60
2018-06-15T18:44:39.422Z,21.50
2018-06-15T18:47:08.756Z,21.60
2018-06-15T18:49:38.229Z,21.50
2018-06-15T18:52:07.803Z,21.60
2018-06-15T18:54:37.385Z,21.50
2018-06-15T18:57:06.941Z,21.50
2018-06-15T18:59:37.338Z,21.40
2018-06-15T19:02:06.833Z,21.40
2018-06-15T19:04:36.329Z,21.30
2018-06-15T19:07:06.342Z,21.40
2018-06-15T19:09:35.868Z,21.30
2018-06-15T19:12:05.751Z,21.30
2018-06-15T19:14:35.265Z,21.30
2018-06-15T19:17:05.038Z,21.30
2018-06-15T19:19:34.429Z,21.30
2018-06-15T19:22:03.888Z,21.30
2018-06-15T19:24:33.295Z,21.20
2018-06-15T19:27:02.823Z,21.20
2018-06-15T19:29:32.290Z,21.10
2018-06-15T19:32:01.804Z,21.10
2018-06-15T19:34:31.217Z,21.10
2018-06-15T19:37:01.080Z,21.00
2018-06-15T19:39:30.484Z,21.00
2018-06-15T19:42:00.180Z,20.90
2018-06-15T19:44:29.852Z,20.90
2018-06-15T19:46:59.482Z,20.90
2018-06-15T19:49:29.199Z,20.90
2018-06-15T19:51:58.921Z,20.80
2018-06-15T19:54:28.355Z,20.80
2018-06-15T19:56:57.881Z,20.80
2018-06-15T19:59:27.303Z,20.70
2018-06-15T20:01:56.793Z,20.70
2018-06-15T20:04:26.331Z,20.70
2018-06-15T20:06:55.865Z,20.70
2018-06-15T20:09:25.679Z,20.70
2018-06-15T20:11:55.223Z,20.70
2018-06-15T20:14:24.644Z,20.70
2018-06-15T20:16:54.201Z,20.70
2018-06-15T20:19:23.624Z,20.60
2018-06-15T20:21:53.190Z,20.60
2018-06-15T20:24:22.576Z,20.50
2018-06-15T20:26:52.450Z,20.50
2018-06-15T20:29:21.825Z,20.40
2018-06-15T20:31:50.944Z,20.50
2018-06-15T20:34:20.280Z,20.50
2018-06-15T20:36:49.644Z,20.40
2018-06-15T20:39:19.017Z,20.40
2018-06-15T20:41:48.211Z,20.40
2018-06-15T20:46:46.861Z,20.30
2018-06-15T20:49:16.200Z,20.30
2018-06-15T20:51:45.551Z,20.30
2018-06-15T20:54:15.020Z,20.20
2018-06-15T20:56:44.818Z,20.20
2018-06-15T20:59:14.235Z,20.20
2018-06-15T21:01:43.561Z,20.20
2018-06-15T21:04:12.948Z,20.20
2018-06-15T21:06:42.388Z,20.10
2018-06-15T21:09:11.793Z,20.10
2018-06-15T21:11:41.396Z,20.10
2018-06-15T21:14:10.784Z,20.10
2018-06-15T21:16:40.132Z,20.00
2018-06-15T21:21:38.549Z,19.90
2018-06-15T21:24:07.838Z,19.90
2018-06-15T21:26:37.268Z,19.90
2018-06-15T21:29:06.702Z,20.00
2018-06-15T21:31:35.794Z,20.00
2018-06-15T21:34:06.141Z,19.90
2018-06-15T21:36:35.438Z,19.90
2018-06-15T21:39:07.611Z,20.00
2018-06-15T21:41:37.061Z,20.00
2018-06-15T21:44:06.499Z,20.00
2018-06-15T21:46:35.913Z,20.00
2018-06-15T21:49:05.287Z,20.00
2018-06-15T21:51:34.826Z,20.00
2018-06-15T21:54:04.205Z,20.00
2018-06-15T21:56:33.681Z,19.90
2018-06-15T21:59:03.095Z,19.90
2018-06-15T22:01:32.560Z,19.90
2018-06-15T22:04:01.640Z,19.90
2018-06-15T22:06:30.771Z,19.90
2018-06-15T22:09:00.208Z,19.90
2018-06-15T22:11:29.653Z,19.80
2018-06-15T22:13:59.042Z,19.90
2018-06-15T22:16:32.684Z,19.90
2018-06-15T22:19:01.754Z,19.80
2018-06-15T22:21:30.811Z,19.80
2018-06-15T22:24:00.296Z,19.80
2018-06-15T22:26:29.602Z,19.70
2018-06-15T22:28:59.179Z,19.80
2018-06-15T22:31:28.583Z,19.80
2018-06-15T22:33:57.910Z,19.80
2018-06-15T22:36:27.315Z,19.80
2018-06-15T22:38:56.609Z,19.80
2018-06-15T22:41:25.970Z,19.80
2018-06-15T22:43:55.664Z,19.80
2018-06-15T22:46:25.273Z,19.80
2018-06-15T22:48:54.596Z,19.70
2018-06-15T22:51:23.970Z,19.70
2018-06-15T22:53:53.342Z,19.70
2018-06-15T22:56:22.706Z,19.70
2018-06-15T22:58:52.068Z,19.60
2018-06-15T23:01:21.481Z,19.50
2018-06-15T23:03:50.802Z,19.50
2018-06-15T23:06:20.650Z,19.50
2018-06-15T23:08:50.092Z,19.50
2018-06-15T23:11:19.513Z,19.60
2018-06-15T23:13:49.242Z,19.50
2018-06-15T23:16:18.698Z,19.50
2018-06-15T23:18:48.247Z,19.40
2018-06-15T23:21:17.922Z,19.50
2018-06-15T23:23:47.646Z,19.50
2018-06-15T23:26:17.249Z,19.50
2018-06-15T23:28:46.964Z,19.50
2018-06-15T23:31:16.584Z,19.50
2018-06-15T23:33:45.871Z,19.50
2018-06-15T23:36:15.428Z,19.50
2018-06-15T23:38:45.146Z,19.50
2018-06-15T23:41:14.510Z,19.50
2018-06-15T23:43:43.766Z,19.50
2018-06-15T23:46:13.226Z,19.50
2018-06-15T23:48:42.889Z,19.60
2018-06-15T23:51:12.687Z,19.50
2018-06-15T23:53:42.593Z,19.40
2018-06-15T23:56:11.929Z,19.40
2018-06-15T23:58:41.509Z,19.30
